Aeroporto :
LOGIN :

Iscrizione | Disclaimer

   EN    FR    IT 

 










Sommario :    VFR   VFR Marginale   IFR   IFR Intensivo   IFR Molto Intensivo
Visibilità : 
Base nubi : 
>= 8 km
>= 3000ft
5 / 8 km
1000 / 3000 ft
1500m / 5 km
500 / 1000 ft
800 / 1500m
200 / 500 ft
< 800m
< 200 ft
Simboli :   Temporali  Nebbia  Neve Forte  Precipitazioni Forti  Vento > 20 kt
SIGMETs :   Varie  Temporali  Ghiacco  Turbolenza  Onda orograficha  Ceneri Vulcaniche






- Altitudine del aeroporto : 512 ft
- Codice IATA : URO


LFOP - Rouen Vallée de Seine

ULTIMO METAR :
  • 250730Z AUTO 05004KT CAVOK 21/16 Q1015 NOSIG

METARs OBSOLETI :
  • 250700Z AUTO 06005KT CAVOK 20/15 Q1015 NOSIG
  • 250630Z AUTO 04007KT CAVOK 19/15 Q1015 NOSIG
  • 250600Z AUTO 04006KT CAVOK 18/15 Q1015 NOSIG
  • 250530Z AUTO 05006KT CAVOK 17/14 Q1015 NOSIG
  • 250500Z AUTO 04007KT CAVOK 16/14 Q1015
  • 250430Z AUTO 04008KT CAVOK 16/14 Q1015
  • 250400Z AUTO 04007KT CAVOK 15/14 Q1015
  • 250330Z AUTO 04007KT CAVOK 15/14 Q1015
  • 250300Z AUTO 04007KT CAVOK 15/14 Q1015

TAF TAF LFOP
Valido dal 25 a 06 ore il 25 a 15 ore UTC


250500Z 2506/2515 04007KT CAVOK
ATIS : +33 2 35 80 80 34
Met : +33 2 32 86 52 80



MetMap, La meteo Aeronautica in un colpo d'occhio ! - Copyright ORBIFLY Dicembre 2007 - Disclaimer

ORBIFLY MET'MAP TEAM :

Programmazione e sviluppo : Alexandra Zaïnal
Concezione : Baudouin d'Aumeries
Supporto tecnico e logistico : Manuel Goepfert
Aiuto : Marc-Olivier Méhu
Aiuto per la traduzione : Arnaldo La Scala




FONTI E CREDITI :

   NOAA